createdAt,value
2024-01-21T00:01:42.229Z,101854.66
2024-01-21T00:04:44.578Z,101888.16
2024-01-21T00:07:47.295Z,101863.13
2024-01-21T00:10:49.670Z,101864.34
2024-01-21T00:13:52.054Z,101886.06
2024-01-21T00:16:54.439Z,101869.25
2024-01-21T00:19:57.601Z,101892.16
2024-01-21T00:22:59.975Z,101869.56
2024-01-21T00:26:02.447Z,101868.16
2024-01-21T00:29:04.877Z,101857.69
2024-01-21T00:32:07.295Z,101848.75
2024-01-21T00:35:09.838Z,101848.22
2024-01-21T00:38:12.327Z,101817.97
2024-01-21T00:41:15.951Z,101842.41
2024-01-21T00:44:20.039Z,101862.63
2024-01-21T00:47:23.175Z,101863.41
2024-01-21T00:50:25.584Z,101874.03
2024-01-21T00:53:28.164Z,101877.81
2024-01-21T00:56:30.603Z,101880.22
2024-01-21T00:59:32.985Z,101892.03
2024-01-21T01:02:35.361Z,101884.31
2024-01-21T01:05:38.049Z,101849.50
2024-01-21T01:08:40.516Z,101874.81
2024-01-21T01:11:42.900Z,101806.28
2024-01-21T01:14:45.465Z,101852.56
2024-01-21T01:17:48.830Z,101839.16
2024-01-21T01:20:51.382Z,101864.28
2024-01-21T01:23:53.756Z,101852.72
2024-01-21T01:26:56.142Z,101858.06
2024-01-21T01:29:58.528Z,101853.19
2024-01-21T01:33:00.948Z,101884.47
2024-01-21T01:36:03.832Z,101883.56
2024-01-21T01:39:08.388Z,101893.13
2024-01-21T01:42:10.993Z,101884.69
2024-01-21T01:45:13.431Z,101884.50
2024-01-21T01:48:16.028Z,101913.13
2024-01-21T01:51:18.766Z,101898.22
2024-01-21T01:54:24.351Z,101941.28
2024-01-21T01:57:27.406Z,101917.53
2024-01-21T02:00:30.867Z,101944.16
2024-01-21T02:03:33.942Z,101930.06
2024-01-21T02:06:36.431Z,101949.16
2024-01-21T02:09:38.879Z,101931.34
2024-01-21T02:12:43.591Z,101924.22
2024-01-21T02:15:46.145Z,101929.41
2024-01-21T02:18:50.859Z,101939.41
2024-01-21T02:21:53.874Z,101936.00
2024-01-21T02:24:56.291Z,101945.09
2024-01-21T02:27:58.656Z,101952.06
2024-01-21T02:31:01.079Z,101944.22
2024-01-21T02:34:03.514Z,101989.78
2024-01-21T02:37:05.936Z,101994.66
2024-01-21T02:40:09.059Z,101998.41
2024-01-21T02:43:11.511Z,101997.31
2024-01-21T02:46:18.280Z,101982.13
2024-01-21T02:49:22.482Z,101960.88
2024-01-21T02:52:24.880Z,101971.69
2024-01-21T02:55:27.256Z,101997.97
2024-01-21T02:58:29.633Z,102010.03
2024-01-21T03:01:34.651Z,101979.19
2024-01-21T03:04:37.097Z,102005.09
2024-01-21T03:07:39.511Z,102004.91
2024-01-21T03:10:42.263Z,102025.88
2024-01-21T03:13:44.639Z,101975.59
2024-01-21T03:16:47.028Z,101987.69
2024-01-21T03:19:49.466Z,102024.22
2024-01-21T03:22:52.019Z,102014.22
2024-01-21T03:25:54.833Z,102000.31
2024-01-21T03:28:58.281Z,102038.50
2024-01-21T03:32:00.621Z,102026.94
2024-01-21T03:35:03.042Z,102029.22
2024-01-21T03:38:05.481Z,102033.25
2024-01-21T03:41:07.856Z,102038.22
2024-01-21T03:44:10.204Z,102039.50
2024-01-21T03:47:12.606Z,102048.84
2024-01-21T03:50:19.584Z,102042.19
2024-01-21T03:53:21.916Z,102045.75
2024-01-21T03:56:24.479Z,102058.59
2024-01-21T03:59:26.890Z,102022.75
2024-01-21T04:02:31.259Z,102013.88
2024-01-21T04:05:33.658Z,102018.84
2024-01-21T04:08:36.101Z,102053.63
2024-01-21T04:11:38.531Z,102026.53
2024-01-21T04:14:40.941Z,102064.56
2024-01-21T04:17:43.444Z,102029.72
2024-01-21T04:20:45.939Z,102061.28
2024-01-21T04:23:48.322Z,102043.84
2024-01-21T04:26:50.751Z,102057.44
2024-01-21T04:29:53.151Z,102063.47
2024-01-21T04:32:55.951Z,102041.34
2024-01-21T04:35:58.541Z,102076.44
2024-01-21T04:39:01.131Z,102060.97
2024-01-21T04:42:03.617Z,102077.78
2024-01-21T04:45:08.281Z,102082.91
2024-01-21T04:48:11.824Z,102062.75
2024-01-21T04:51:15.203Z,102086.63
2024-01-21T04:54:17.745Z,102067.13
2024-01-21T04:57:20.186Z,102087.75
2024-01-21T05:00:22.640Z,102060.00
2024-01-21T05:03:25.137Z,102109.06
2024-01-21T05:06:27.752Z,102082.47
2024-01-21T05:09:30.155Z,102127.81
2024-01-21T05:12:32.629Z,102107.34
2024-01-21T05:15:35.041Z,102114.88
2024-01-21T05:18:41.139Z,102119.94
2024-01-21T05:21:43.642Z,102135.38
2024-01-21T05:24:46.132Z,102136.03
2024-01-21T05:27:48.565Z,102116.41
2024-01-21T05:30:51.018Z,102073.53
2024-01-21T05:33:53.473Z,102110.53
2024-01-21T05:36:56.010Z,102145.44
2024-01-21T05:39:59.635Z,102144.06
2024-01-21T05:43:03.190Z,102147.88
2024-01-21T05:46:05.623Z,102116.50
2024-01-21T05:49:08.054Z,102141.13
2024-01-21T05:52:10.488Z,102113.88
2024-01-21T05:55:12.977Z,102092.72
2024-01-21T05:58:16.681Z,102158.22
2024-01-21T06:01:19.179Z,102169.78
2024-01-21T06:04:21.931Z,102161.22
2024-01-21T06:07:24.773Z,102167.44
2024-01-21T06:10:27.298Z,102186.72
2024-01-21T06:13:29.786Z,102151.88
2024-01-21T06:16:32.136Z,102186.41
2024-01-21T06:19:34.572Z,102165.81
2024-01-21T06:22:37.692Z,102154.88
2024-01-21T06:25:40.329Z,102185.53
2024-01-21T06:28:42.771Z,102190.09
2024-01-21T06:31:45.239Z,102204.41
2024-01-21T06:34:47.701Z,102196.22
2024-01-21T06:37:50.134Z,102221.31
2024-01-21T06:40:54.014Z,102228.22
2024-01-21T06:43:56.410Z,102204.31
2024-01-21T06:46:58.793Z,102205.19
2024-01-21T06:50:01.149Z,102217.03
2024-01-21T06:53:05.155Z,102240.19
2024-01-21T06:56:09.454Z,102216.63
2024-01-21T06:59:13.331Z,102209.31
2024-01-21T07:02:16.007Z,102219.00
2024-01-21T07:05:18.363Z,102253.34
2024-01-21T07:08:20.818Z,102258.53
2024-01-21T07:11:23.239Z,102241.34
2024-01-21T07:14:25.599Z,102241.94
2024-01-21T07:17:28.042Z,102273.59
2024-01-21T07:20:30.508Z,102254.25
2024-01-21T07:23:32.895Z,102282.06
2024-01-21T07:26:35.410Z,102285.09
2024-01-21T07:29:37.798Z,102287.75
2024-01-21T07:32:40.906Z,102275.25
2024-01-21T07:35:43.480Z,102265.88
2024-01-21T07:38:45.852Z,102269.44
2024-01-21T07:41:48.234Z,102272.44
2024-01-21T07:44:50.993Z,102280.69
2024-01-21T07:47:53.554Z,102276.16
2024-01-21T07:50:55.978Z,102231.75
2024-01-21T07:53:58.349Z,102236.13
2024-01-21T07:57:00.802Z,102247.97
2024-01-21T08:00:04.718Z,102262.66
2024-01-21T08:03:07.955Z,102234.00
2024-01-21T08:06:11.205Z,102282.44
2024-01-21T08:09:13.882Z,102259.28
2024-01-21T08:12:16.303Z,102275.44
2024-01-21T08:15:18.793Z,102279.91
2024-01-21T08:18:21.338Z,102260.09
2024-01-21T08:21:23.784Z,102258.13
2024-01-21T08:24:26.216Z,102283.72
2024-01-21T08:27:29.863Z,102270.72
2024-01-21T08:30:32.360Z,102263.16
2024-01-21T08:33:37.916Z,102261.97
2024-01-21T08:36:40.636Z,102292.69
2024-01-21T08:39:46.505Z,102288.66
2024-01-21T08:42:53.313Z,102296.69
2024-01-21T08:45:56.976Z,102301.38
2024-01-21T08:48:59.612Z,102309.47
2024-01-21T08:52:02.240Z,102304.25
2024-01-21T08:55:05.572Z,102288.63
2024-01-21T08:58:08.063Z,102292.06
2024-01-21T09:01:10.520Z,102329.56
2024-01-21T09:04:13.020Z,102309.44
2024-01-21T09:07:16.978Z,102316.16
2024-01-21T09:10:21.962Z,102271.44
2024-01-21T09:13:24.339Z,102310.53
2024-01-21T09:16:26.784Z,102311.94
2024-01-21T09:19:29.383Z,102333.22
2024-01-21T09:22:31.973Z,102319.09
2024-01-21T09:25:34.425Z,102342.03
2024-01-21T09:28:37.961Z,102328.03
2024-01-21T09:31:40.710Z,102345.09
2024-01-21T09:34:44.946Z,102350.25
2024-01-21T09:37:47.392Z,102350.16
2024-01-21T09:40:58.932Z,102350.75
2024-01-21T09:44:02.590Z,102318.50
2024-01-21T09:47:05.149Z,102325.63
2024-01-21T09:50:09.367Z,102338.56
2024-01-21T09:53:11.798Z,102326.28
2024-01-21T09:56:14.452Z,102320.94
2024-01-21T09:59:17.476Z,102354.84
2024-01-21T10:02:20.144Z,102364.59
2024-01-21T10:05:22.538Z,102318.97
2024-01-21T10:08:24.974Z,102345.56
2024-01-21T10:11:27.461Z,102338.41
2024-01-21T10:14:30.556Z,102346.97
2024-01-21T10:17:33.045Z,102360.72
2024-01-21T10:20:37.823Z,102328.00
2024-01-21T10:23:41.897Z,102342.41
2024-01-21T10:26:47.039Z,102365.69
2024-01-21T10:29:49.536Z,102335.00
2024-01-21T10:32:51.984Z,102349.31
2024-01-21T10:35:57.568Z,102350.09
2024-01-21T10:39:03.669Z,102338.38
2024-01-21T10:42:07.774Z,102360.91
2024-01-21T10:45:10.594Z,102360.09
2024-01-21T10:48:16.675Z,102356.53
2024-01-21T10:51:20.563Z,102364.16
2024-01-21T10:54:26.222Z,102345.53
2024-01-21T10:57:28.636Z,102331.66
2024-01-21T11:00:31.199Z,102363.75
2024-01-21T11:03:35.105Z,102340.53
2024-01-21T11:06:37.785Z,102362.91
2024-01-21T11:09:42.132Z,102353.28
2024-01-21T11:12:46.126Z,102364.22
2024-01-21T11:15:49.087Z,102362.47
2024-01-21T11:18:51.636Z,102360.88
2024-01-21T11:21:57.250Z,102340.25
2024-01-21T11:24:59.810Z,102340.47
2024-01-21T11:28:05.002Z,102356.72
2024-01-21T11:31:08.666Z,102354.28
2024-01-21T11:34:12.676Z,102337.69
2024-01-21T11:37:15.497Z,102355.47
2024-01-21T11:40:18.030Z,102337.34
2024-01-21T11:43:20.573Z,102329.97
2024-01-21T11:46:24.051Z,102358.31
2024-01-21T11:49:26.974Z,102361.31
2024-01-21T11:52:29.488Z,102338.72
2024-01-21T11:55:31.933Z,102335.41
2024-01-21T11:58:34.391Z,102333.50
2024-01-21T12:01:41.067Z,102353.97
2024-01-21T12:04:46.800Z,102330.19
2024-01-21T12:07:49.279Z,102313.31
2024-01-21T12:10:51.761Z,102316.41
2024-01-21T12:13:54.240Z,102330.84
2024-01-21T12:16:56.689Z,102319.88
2024-01-21T12:19:59.261Z,102305.28
2024-01-21T12:23:01.874Z,102300.88
2024-01-21T12:26:05.163Z,102326.09
2024-01-21T12:29:12.159Z,102325.75
2024-01-21T12:32:14.595Z,102323.53
2024-01-21T12:35:17.392Z,102320.38
2024-01-21T12:38:20.961Z,102301.13
2024-01-21T12:41:23.522Z,102322.13
2024-01-21T12:44:26.034Z,102326.28
2024-01-21T12:47:28.513Z,102302.38
2024-01-21T12:50:31.447Z,102330.81
2024-01-21T12:53:33.869Z,102301.25
2024-01-21T12:56:36.857Z,102322.59
2024-01-21T12:59:39.377Z,102328.16
2024-01-21T13:02:41.866Z,102318.56
2024-01-21T13:05:44.993Z,102335.47
2024-01-21T13:08:48.209Z,102345.88
2024-01-21T13:11:51.766Z,102334.63
2024-01-21T13:14:56.046Z,102338.97
2024-01-21T13:17:58.849Z,102335.97
2024-01-21T13:21:01.313Z,102323.88
2024-01-21T13:24:04.593Z,102319.19
2024-01-21T13:27:13.110Z,102300.81
2024-01-21T13:30:34.175Z,102314.16
2024-01-21T13:33:38.464Z,102345.88
2024-01-21T13:36:41.023Z,102330.19
2024-01-21T13:39:43.571Z,102334.03
2024-01-21T13:42:47.076Z,102346.28
2024-01-21T13:45:50.125Z,102343.00
2024-01-21T13:48:52.877Z,102348.09
2024-01-21T13:51:55.751Z,102329.94
2024-01-21T13:54:58.880Z,102323.03
2024-01-21T13:58:03.686Z,102315.19
2024-01-21T14:01:06.222Z,102314.22
2024-01-21T14:04:08.875Z,102326.25
2024-01-21T14:07:11.565Z,102314.41
2024-01-21T14:10:14.375Z,102321.66
2024-01-21T14:13:16.831Z,102318.00
2024-01-21T14:16:19.534Z,102318.91
2024-01-21T14:19:22.054Z,102308.44
2024-01-21T14:22:24.578Z,102308.00
2024-01-21T14:25:37.551Z,102294.47
2024-01-21T14:28:43.752Z,102293.88
2024-01-21T14:31:46.398Z,102292.84
2024-01-21T14:34:49.212Z,102310.16
2024-01-21T14:37:51.756Z,102312.72
2024-01-21T14:40:55.680Z,102321.59
2024-01-21T14:43:58.421Z,102291.31
2024-01-21T14:47:00.964Z,102319.50
2024-01-21T14:50:04.622Z,102322.28
2024-01-21T14:53:07.476Z,102313.44
2024-01-21T14:56:10.204Z,102317.19
2024-01-21T14:59:12.666Z,102306.53
2024-01-21T15:02:15.258Z,102306.09
2024-01-21T15:05:17.904Z,102309.06
2024-01-21T15:08:20.465Z,102334.50
2024-01-21T15:11:25.773Z,102337.59
2024-01-21T15:14:39.809Z,102333.78
2024-01-21T15:17:42.197Z,102324.31
2024-01-21T15:20:44.827Z,102322.38
2024-01-21T15:23:47.463Z,102341.03
2024-01-21T15:26:50.298Z,102352.81
2024-01-21T15:29:53.056Z,102322.06
2024-01-21T15:32:56.726Z,102349.88
2024-01-21T15:35:59.334Z,102343.22
2024-01-21T15:39:01.713Z,102368.41
2024-01-21T15:42:04.406Z,102363.09
2024-01-21T15:45:16.077Z,102373.69
2024-01-21T15:48:18.865Z,102349.59
2024-01-21T15:51:23.271Z,102379.84
2024-01-21T15:54:26.143Z,102356.41
2024-01-21T15:57:28.981Z,102374.94
2024-01-21T16:00:34.332Z,102351.72
2024-01-21T16:03:37.040Z,102380.91
2024-01-21T16:06:39.933Z,102383.97
2024-01-21T16:09:42.644Z,102377.88
2024-01-21T16:12:48.098Z,102351.56
2024-01-21T16:15:54.518Z,102350.38
2024-01-21T16:18:58.944Z,102376.69
2024-01-21T16:22:01.842Z,102346.28
2024-01-21T16:25:05.926Z,102360.56
2024-01-21T16:28:08.496Z,102371.00
2024-01-21T16:31:11.242Z,102369.63
2024-01-21T16:34:14.444Z,102371.66
2024-01-21T16:37:16.832Z,102365.59
2024-01-21T16:40:19.375Z,102389.44
2024-01-21T16:43:22.814Z,102354.84
2024-01-21T16:46:26.651Z,102364.28
2024-01-21T16:49:29.209Z,102393.66
2024-01-21T16:52:34.184Z,102396.81
2024-01-21T16:55:36.622Z,102365.78
2024-01-21T16:58:39.406Z,102400.66
2024-01-21T17:01:52.845Z,102371.16
2024-01-21T17:04:57.446Z,102375.38
2024-01-21T17:08:00.113Z,102392.63
2024-01-21T17:11:10.793Z,102417.03
2024-01-21T17:14:18.617Z,102413.84
2024-01-21T17:17:21.800Z,102417.00
2024-01-21T17:20:24.251Z,102396.25
2024-01-21T17:23:26.705Z,102388.13
2024-01-21T17:26:29.803Z,102411.41
2024-01-21T17:29:32.570Z,102399.56
2024-01-21T17:32:35.322Z,102396.97
2024-01-21T17:35:38.224Z,102391.78
2024-01-21T17:38:41.214Z,102422.38
2024-01-21T17:41:43.943Z,102406.38
2024-01-21T17:44:53.215Z,102382.00
2024-01-21T17:47:56.365Z,102408.53
2024-01-21T17:50:59.048Z,102413.31
2024-01-21T17:54:01.605Z,102414.13
2024-01-21T17:57:05.097Z,102389.69
2024-01-21T18:00:08.529Z,102420.09
2024-01-21T18:03:18.498Z,102409.28
2024-01-21T18:06:21.734Z,102425.09
2024-01-21T18:09:24.474Z,102395.16
2024-01-21T18:12:27.674Z,102405.44
2024-01-21T18:15:30.495Z,102414.22
2024-01-21T18:18:32.906Z,102418.38
2024-01-21T18:21:37.280Z,102426.94
2024-01-21T18:24:41.155Z,102424.25
2024-01-21T18:27:43.785Z,102397.84
2024-01-21T18:30:46.911Z,102435.69
2024-01-21T18:33:49.428Z,102432.66
2024-01-21T18:36:51.884Z,102437.53
2024-01-21T18:39:56.091Z,102439.91
2024-01-21T18:43:00.341Z,102444.13
2024-01-21T18:46:03.057Z,102423.75
2024-01-21T18:49:06.019Z,102446.81
2024-01-21T18:52:09.377Z,102443.25
2024-01-21T18:55:12.610Z,102436.56
2024-01-21T18:58:27.344Z,102407.69
2024-01-21T19:01:30.795Z,102428.31
2024-01-21T19:04:38.682Z,102439.59
2024-01-21T19:07:45.706Z,102415.44
2024-01-21T19:10:49.345Z,102435.50
2024-01-21T19:13:53.166Z,102421.97
2024-01-21T19:16:55.715Z,102396.00
2024-01-21T19:19:58.905Z,102396.09
2024-01-21T19:23:01.605Z,102404.78
2024-01-21T19:26:06.310Z,102394.50
2024-01-21T19:29:09.164Z,102428.56
2024-01-21T19:32:11.794Z,102416.56
2024-01-21T19:35:14.435Z,102408.06
2024-01-21T19:38:17.062Z,102353.03
2024-01-21T19:41:21.862Z,102403.63
2024-01-21T19:44:24.343Z,102413.00
2024-01-21T19:47:26.722Z,102405.28
2024-01-21T19:50:29.137Z,102389.44
2024-01-21T19:53:31.670Z,102417.13
2024-01-21T19:56:35.486Z,102388.97
2024-01-21T19:59:38.587Z,102415.97
2024-01-21T20:02:41.320Z,102382.00
2024-01-21T20:05:44.238Z,102399.22
2024-01-21T20:08:47.171Z,102402.38
2024-01-21T20:11:50.071Z,102425.75
2024-01-21T20:14:52.538Z,102431.38
2024-01-21T20:17:55.183Z,102432.81
2024-01-21T20:20:57.709Z,102403.84
2024-01-21T20:24:00.327Z,102397.97
2024-01-21T20:27:03.045Z,102429.41
2024-01-21T20:30:06.865Z,102392.25
2024-01-21T20:33:09.774Z,102418.69
2024-01-21T20:36:12.614Z,102385.69
2024-01-21T20:39:15.463Z,102398.69
2024-01-21T20:42:18.109Z,102403.16
2024-01-21T20:45:20.834Z,102403.03
2024-01-21T20:48:23.309Z,102412.31
2024-01-21T20:51:25.750Z,102409.06
2024-01-21T20:54:32.845Z,102371.53
2024-01-21T20:57:35.471Z,102407.84
2024-01-21T21:00:38.152Z,102381.94
2024-01-21T21:03:40.673Z,102397.13
2024-01-21T21:06:43.520Z,102380.53
2024-01-21T21:09:46.303Z,102404.53
2024-01-21T21:12:49.546Z,102403.72
2024-01-21T21:15:52.002Z,102383.25
2024-01-21T21:18:55.179Z,102424.41
2024-01-21T21:21:57.665Z,102422.75
2024-01-21T21:25:00.068Z,102420.59
2024-01-21T21:28:02.458Z,102391.13
2024-01-21T21:31:04.865Z,102411.56
2024-01-21T21:34:07.410Z,102429.84
2024-01-21T21:37:09.901Z,102419.63
2024-01-21T21:40:12.842Z,102417.13
2024-01-21T21:43:15.497Z,102385.59
2024-01-21T21:46:18.310Z,102409.97
2024-01-21T21:49:22.476Z,102411.84
2024-01-21T21:52:25.407Z,102391.94
2024-01-21T21:55:29.132Z,102389.81
2024-01-21T21:58:32.449Z,102396.22
2024-01-21T22:01:34.965Z,102383.72
2024-01-21T22:04:37.657Z,102391.97
2024-01-21T22:07:40.366Z,102381.88
2024-01-21T22:10:43.320Z,102360.28
2024-01-21T22:13:45.855Z,102387.75
2024-01-21T22:16:49.543Z,102355.50
2024-01-21T22:19:52.006Z,102380.03
2024-01-21T22:22:54.526Z,102354.97
2024-01-21T22:25:56.966Z,102371.50
2024-01-21T22:28:59.374Z,102381.09
2024-01-21T22:32:02.453Z,102397.78
2024-01-21T22:35:05.107Z,102362.22
2024-01-21T22:38:07.532Z,102342.88
2024-01-21T22:41:09.980Z,102375.06
2024-01-21T22:44:12.344Z,102378.75
2024-01-21T22:47:14.816Z,102376.56
2024-01-21T22:50:17.206Z,102356.69
2024-01-21T22:53:20.895Z,102372.28
2024-01-21T22:56:24.480Z,102370.13
2024-01-21T22:59:26.890Z,102349.22
2024-01-21T23:02:29.226Z,102336.22
2024-01-21T23:05:31.634Z,102322.84
2024-01-21T23:08:34.106Z,102321.66
2024-01-21T23:11:36.779Z,102348.97
2024-01-21T23:14:39.255Z,102347.72
2024-01-21T23:17:41.850Z,102342.00
2024-01-21T23:20:44.311Z,102320.72
2024-01-21T23:23:46.926Z,102334.84
2024-01-21T23:26:49.335Z,102356.84
2024-01-21T23:29:51.769Z,102348.03
2024-01-21T23:32:54.337Z,102374.66
2024-01-21T23:35:56.880Z,102383.19
2024-01-21T23:38:59.335Z,102355.31
2024-01-21T23:42:01.780Z,102356.06
2024-01-21T23:45:04.957Z,102380.53
2024-01-21T23:48:07.820Z,102409.03
2024-01-21T23:51:10.449Z,102379.03
2024-01-21T23:54:13.565Z,102402.78
2024-01-21T23:57:16.088Z,102405.09
